sensor_id;sensor_type;location;lat;lon;timestamp;P1;durP1;ratioP1;P2;durP2;ratioP2
74788;SDS011;63313;48.258;12.518;2023-03-21T00:04:58;7.889999999999999;;;4.18;;
74788;SDS011;63313;48.258;12.518;2023-03-21T00:10:25;6.65;;;4.51;;
74788;SDS011;63313;48.258;12.518;2023-03-21T00:15:52;7.659999999999999;;;4.72;;
74788;SDS011;63313;48.258;12.518;2023-03-21T00:21:20;10.620000000000001;;;4.68;;
74788;SDS011;63313;48.258;12.518;2023-03-21T00:26:48;6.640000000000001;;;4.220000000000001;;
74788;SDS011;63313;48.258;12.518;2023-03-21T00:32:15;8.32;;;4.889999999999999;;
74788;SDS011;63313;48.258;12.518;2023-03-21T00:37:42;7.600000000000001;;;4.460000000000001;;
74788;SDS011;63313;48.258;12.518;2023-03-21T00:43:09;10.19;;;5.630000000000001;;
74788;SDS011;63313;48.258;12.518;2023-03-21T00:48:36;6.329999999999999;;;4.6;;
74788;SDS011;63313;48.258;12.518;2023-03-21T00:54:04;6.609999999999999;;;4.15;;
74788;SDS011;63313;48.258;12.518;2023-03-21T00:59:31;9.669999999999998;;;4.36;;
74788;SDS011;63313;48.258;12.518;2023-03-21T01:04:58;7.650000000000001;;;3.97;;
74788;SDS011;63313;48.258;12.518;2023-03-21T01:10:25;7.05;;;4.17;;
74788;SDS011;63313;48.258;12.518;2023-03-21T01:15:53;5.8500000000000005;;;4.73;;
74788;SDS011;63313;48.258;12.518;2023-03-21T01:21:20;7.209999999999999;;;4.610000000000001;;
74788;SDS011;63313;48.258;12.518;2023-03-21T01:26:47;8.89;;;4.25;;
74788;SDS011;63313;48.258;12.518;2023-03-21T01:32:14;7.830000000000001;;;4.88;;
74788;SDS011;63313;48.258;12.518;2023-03-21T01:37:41;6.14;;;4.540000000000001;;
74788;SDS011;63313;48.258;12.518;2023-03-21T01:43:14;6.45;;;4.8;;
74788;SDS011;63313;48.258;12.518;2023-03-21T01:48:44;7.87;;;4.63;;
74788;SDS011;63313;48.258;12.518;2023-03-21T01:54:13;5.01;;;4.2299999999999995;;
74788;SDS011;63313;48.258;12.518;2023-03-21T01:59:41;6.4300000000000015;;;4.1;;
74788;SDS011;63313;48.258;12.518;2023-03-21T02:05:09;7.2;;;4.5200000000000005;;
74788;SDS011;63313;48.258;12.518;2023-03-21T02:10:36;6.82;;;4.979999999999999;;
74788;SDS011;63313;48.258;12.518;2023-03-21T02:16:05;7.530000000000001;;;4.709999999999999;;
74788;SDS011;63313;48.258;12.518;2023-03-21T02:21:43;6.37;;;4.79;;
74788;SDS011;63313;48.258;12.518;2023-03-21T02:27:15;6.29;;;4.99;;
74788;SDS011;63313;48.258;12.518;2023-03-21T02:32:49;5.74;;;4.930000000000001;;
74788;SDS011;63313;48.258;12.518;2023-03-21T02:38:24;6.130000000000001;;;4.62;;
74788;SDS011;63313;48.258;12.518;2023-03-21T02:43:53;9.66;;;4.86;;
74788;SDS011;63313;48.258;12.518;2023-03-21T02:49:22;7.0;;;4.68;;
74788;SDS011;63313;48.258;12.518;2023-03-21T02:54:50;10.16;;;4.6899999999999995;;
74788;SDS011;63313;48.258;12.518;2023-03-21T03:00:18;6.500000000000002;;;4.410000000000001;;
74788;SDS011;63313;48.258;12.518;2023-03-21T03:05:47;8.620000000000001;;;4.49;;
74788;SDS011;63313;48.258;12.518;2023-03-21T03:11:19;6.180000000000001;;;4.369999999999999;;
74788;SDS011;63313;48.258;12.518;2023-03-21T03:16:51;11.8;;;4.76;;
74788;SDS011;63313;48.258;12.518;2023-03-21T03:22:22;7.06;;;4.9399999999999995;;
74788;SDS011;63313;48.258;12.518;2023-03-21T03:27:51;5.799999999999999;;;4.500000000000001;;
74788;SDS011;63313;48.258;12.518;2023-03-21T03:33:18;8.23;;;4.8;;
74788;SDS011;63313;48.258;12.518;2023-03-21T03:38:46;6.09;;;4.6899999999999995;;
74788;SDS011;63313;48.258;12.518;2023-03-21T03:44:14;5.140000000000001;;;4.3;;
74788;SDS011;63313;48.258;12.518;2023-03-21T03:49:42;7.3;;;4.77;;
74788;SDS011;63313;48.258;12.518;2023-03-21T03:55:12;7.029999999999999;;;4.680000000000001;;
74788;SDS011;63313;48.258;12.518;2023-03-21T04:00:39;5.51;;;4.6499999999999995;;
74788;SDS011;63313;48.258;12.518;2023-03-21T04:06:07;6.37;;;4.79;;
74788;SDS011;63313;48.258;12.518;2023-03-21T04:11:34;12.919999999999998;;;5.22;;
74788;SDS011;63313;48.258;12.518;2023-03-21T04:17:01;10.63;;;5.28;;
74788;SDS011;63313;48.258;12.518;2023-03-21T04:22:28;10.400000000000002;;;5.039999999999999;;
74788;SDS011;63313;48.258;12.518;2023-03-21T04:27:55;7.65;;;5.069999999999999;;
74788;SDS011;63313;48.258;12.518;2023-03-21T04:33:22;8.91;;;5.75;;
74788;SDS011;63313;48.258;12.518;2023-03-21T04:38:49;10.31;;;6.87;;
74788;SDS011;63313;48.258;12.518;2023-03-21T04:44:16;9.780000000000001;;;6.6;;
74788;SDS011;63313;48.258;12.518;2023-03-21T04:49:43;7.56;;;5.779999999999999;;
74788;SDS011;63313;48.258;12.518;2023-03-21T04:55:10;7.8100000000000005;;;5.02;;
74788;SDS011;63313;48.258;12.518;2023-03-21T05:00:38;7.859999999999999;;;5.2700000000000005;;
74788;SDS011;63313;48.258;12.518;2023-03-21T05:06:05;6.8;;;5.59;;
74788;SDS011;63313;48.258;12.518;2023-03-21T05:11:33;7.7700000000000005;;;6.160000000000001;;
74788;SDS011;63313;48.258;12.518;2023-03-21T05:17:00;8.27;;;5.83;;
74788;SDS011;63313;48.258;12.518;2023-03-21T05:22:27;9.129999999999999;;;6.609999999999999;;
74788;SDS011;63313;48.258;12.518;2023-03-21T05:27:54;11.2;;;7.230000000000001;;
74788;SDS011;63313;48.258;12.518;2023-03-21T05:33:21;8.639999999999999;;;6.790000000000001;;
74788;SDS011;63313;48.258;12.518;2023-03-21T05:38:48;8.91;;;6.37;;
74788;SDS011;63313;48.258;12.518;2023-03-21T05:44:15;7.37;;;5.65;;
74788;SDS011;63313;48.258;12.518;2023-03-21T05:49:42;10.29;;;6.959999999999999;;
74788;SDS011;63313;48.258;12.518;2023-03-21T05:55:09;10.65;;;5.8100000000000005;;
74788;SDS011;63313;48.258;12.518;2023-03-21T06:00:36;8.34;;;5.5;;
74788;SDS011;63313;48.258;12.518;2023-03-21T06:06:04;8.09;;;5.540000000000001;;
74788;SDS011;63313;48.258;12.518;2023-03-21T06:11:31;10.21;;;6.07;;
74788;SDS011;63313;48.258;12.518;2023-03-21T06:16:59;8.98;;;5.9799999999999995;;
74788;SDS011;63313;48.258;12.518;2023-03-21T06:22:26;5.700000000000001;;;4.95;;
74788;SDS011;63313;48.258;12.518;2023-03-21T06:27:53;11.709999999999999;;;6.23;;
74788;SDS011;63313;48.258;12.518;2023-03-21T06:33:20;16.800000000000004;;;6.44;;
74788;SDS011;63313;48.258;12.518;2023-03-21T06:38:47;12.65;;;5.569999999999999;;
74788;SDS011;63313;48.258;12.518;2023-03-21T06:44:14;11.22;;;5.139999999999999;;
74788;SDS011;63313;48.258;12.518;2023-03-21T06:49:41;10.879999999999999;;;5.35;;
74788;SDS011;63313;48.258;12.518;2023-03-21T06:55:08;12.920000000000002;;;5.41;;
74788;SDS011;63313;48.258;12.518;2023-03-21T07:00:35;9.84;;;5.71;;
74788;SDS011;63313;48.258;12.518;2023-03-21T07:06:03;12.88;;;6.320000000000001;;
74788;SDS011;63313;48.258;12.518;2023-03-21T07:11:31;9.849999999999998;;;5.12;;
74788;SDS011;63313;48.258;12.518;2023-03-21T07:16:58;8.129999999999999;;;5.430000000000001;;
74788;SDS011;63313;48.258;12.518;2023-03-21T07:22:25;8.38;;;5.49;;
74788;SDS011;63313;48.258;12.518;2023-03-21T07:27:52;8.080000000000002;;;5.109999999999999;;
74788;SDS011;63313;48.258;12.518;2023-03-21T07:33:19;10.52;;;5.359999999999999;;
74788;SDS011;63313;48.258;12.518;2023-03-21T07:38:46;5.73;;;4.35;;
74788;SDS011;63313;48.258;12.518;2023-03-21T07:44:14;7.910000000000001;;;5.430000000000001;;
74788;SDS011;63313;48.258;12.518;2023-03-21T07:49:41;8.16;;;5.43;;
74788;SDS011;63313;48.258;12.518;2023-03-21T07:55:08;6.529999999999999;;;5.07;;
74788;SDS011;63313;48.258;12.518;2023-03-21T08:00:35;9.94;;;4.970000000000001;;
74788;SDS011;63313;48.258;12.518;2023-03-21T08:06:02;6.62;;;4.75;;
74788;SDS011;63313;48.258;12.518;2023-03-21T08:11:29;5.55;;;4.520000000000001;;
74788;SDS011;63313;48.258;12.518;2023-03-21T08:16:56;6.8;;;4.5200000000000005;;
74788;SDS011;63313;48.258;12.518;2023-03-21T08:22:23;7.3;;;5.96;;
74788;SDS011;63313;48.258;12.518;2023-03-21T08:27:51;6.94;;;5.09;;
74788;SDS011;63313;48.258;12.518;2023-03-21T08:33:18;11.53;;;6.789999999999999;;
74788;SDS011;63313;48.258;12.518;2023-03-21T08:38:45;14.220000000000002;;;5.91;;
74788;SDS011;63313;48.258;12.518;2023-03-21T08:44:12;9.23;;;5.75;;
74788;SDS011;63313;48.258;12.518;2023-03-21T08:49:39;9.09;;;5.709999999999999;;
74788;SDS011;63313;48.258;12.518;2023-03-21T08:55:07;6.9;;;5.14;;
74788;SDS011;63313;48.258;12.518;2023-03-21T09:00:34;11.29;;;5.86;;
74788;SDS011;63313;48.258;12.518;2023-03-21T09:06:01;7.709999999999999;;;5.5600000000000005;;
74788;SDS011;63313;48.258;12.518;2023-03-21T09:11:28;7.62;;;5.540000000000001;;
74788;SDS011;63313;48.258;12.518;2023-03-21T09:16:55;10.469999999999999;;;5.97;;
74788;SDS011;63313;48.258;12.518;2023-03-21T09:22:22;7.83;;;5.77;;
74788;SDS011;63313;48.258;12.518;2023-03-21T09:27:49;10.43;;;6.159999999999999;;
74788;SDS011;63313;48.258;12.518;2023-03-21T09:33:17;7.909999999999999;;;5.9;;
74788;SDS011;63313;48.258;12.518;2023-03-21T09:38:44;10.760000000000002;;;5.92;;
74788;SDS011;63313;48.258;12.518;2023-03-21T09:44:16;7.9799999999999995;;;5.47;;
74788;SDS011;63313;48.258;12.518;2023-03-21T09:49:47;11.05;;;5.470000000000001;;
74788;SDS011;63313;48.258;12.518;2023-03-21T09:55:16;9.35;;;5.699999999999999;;
74788;SDS011;63313;48.258;12.518;2023-03-21T10:00:44;6.92;;;5.37;;
74788;SDS011;63313;48.258;12.518;2023-03-21T10:06:13;8.92;;;5.45;;
74788;SDS011;63313;48.258;12.518;2023-03-21T10:11:41;7.909999999999999;;;5.930000000000001;;
74788;SDS011;63313;48.258;12.518;2023-03-21T10:17:12;7.07;;;4.56;;
74788;SDS011;63313;48.258;12.518;2023-03-21T10:22:43;9.29;;;5.88;;
74788;SDS011;63313;48.258;12.518;2023-03-21T10:28:12;8.429999999999998;;;5.95;;
74788;SDS011;63313;48.258;12.518;2023-03-21T10:33:41;7.459999999999999;;;5.890000000000001;;
74788;SDS011;63313;48.258;12.518;2023-03-21T10:39:14;6.1;;;5.140000000000001;;
74788;SDS011;63313;48.258;12.518;2023-03-21T10:44:45;7.9300000000000015;;;4.949999999999999;;
74788;SDS011;63313;48.258;12.518;2023-03-21T10:50:13;8.94;;;5.42;;
74788;SDS011;63313;48.258;12.518;2023-03-21T10:55:41;7.160000000000001;;;5.119999999999999;;
74788;SDS011;63313;48.258;12.518;2023-03-21T11:01:09;7.169999999999999;;;5.109999999999999;;
74788;SDS011;63313;48.258;12.518;2023-03-21T11:06:38;11.34;;;5.39;;
74788;SDS011;63313;48.258;12.518;2023-03-21T11:12:08;5.759999999999999;;;4.660000000000001;;
74788;SDS011;63313;48.258;12.518;2023-03-21T11:17:36;8.85;;;4.97;;
74788;SDS011;63313;48.258;12.518;2023-03-21T11:23:04;7.160000000000001;;;4.770000000000001;;
74788;SDS011;63313;48.258;12.518;2023-03-21T11:28:32;7.739999999999999;;;4.76;;
74788;SDS011;63313;48.258;12.518;2023-03-21T11:34:05;5.119999999999999;;;4.28;;
74788;SDS011;63313;48.258;12.518;2023-03-21T11:39:33;4.159999999999999;;;3.7399999999999998;;
74788;SDS011;63313;48.258;12.518;2023-03-21T11:45:02;5.27;;;4.45;;
74788;SDS011;63313;48.258;12.518;2023-03-21T11:50:32;4.209999999999999;;;3.79;;
74788;SDS011;63313;48.258;12.518;2023-03-21T11:56:03;5.5600000000000005;;;4.2299999999999995;;
74788;SDS011;63313;48.258;12.518;2023-03-21T12:01:35;4.910000000000001;;;3.7300000000000004;;
74788;SDS011;63313;48.258;12.518;2023-03-21T12:07:04;4.99;;;3.96;;
74788;SDS011;63313;48.258;12.518;2023-03-21T12:12:37;6.029999999999999;;;4.180000000000001;;
74788;SDS011;63313;48.258;12.518;2023-03-21T12:18:06;5.04;;;4.0;;
74788;SDS011;63313;48.258;12.518;2023-03-21T12:23:46;4.75;;;4.14;;
74788;SDS011;63313;48.258;12.518;2023-03-21T12:29:20;4.17;;;3.8199999999999994;;
74788;SDS011;63313;48.258;12.518;2023-03-21T12:34:57;4.23;;;3.5900000000000007;;
74788;SDS011;63313;48.258;12.518;2023-03-21T12:40:34;5.3100000000000005;;;3.8400000000000007;;
74788;SDS011;63313;48.258;12.518;2023-03-21T12:46:07;7.360000000000001;;;4.000000000000001;;
74788;SDS011;63313;48.258;12.518;2023-03-21T12:51:36;4.58;;;3.81;;
74788;SDS011;63313;48.258;12.518;2023-03-21T12:57:06;5.05;;;4.17;;
74788;SDS011;63313;48.258;12.518;2023-03-21T13:02:37;5.3100000000000005;;;3.8699999999999997;;
74788;SDS011;63313;48.258;12.518;2023-03-21T13:08:06;3.75;;;3.4199999999999995;;
74788;SDS011;63313;48.258;12.518;2023-03-21T13:13:35;4.8999999999999995;;;4.299999999999999;;
74788;SDS011;63313;48.258;12.518;2023-03-21T13:19:09;4.139999999999999;;;3.7199999999999998;;
74788;SDS011;63313;48.258;12.518;2023-03-21T13:24:40;5.24;;;3.85;;
74788;SDS011;63313;48.258;12.518;2023-03-21T13:30:17;3.95;;;3.5900000000000007;;
74788;SDS011;63313;48.258;12.518;2023-03-21T13:35:45;4.89;;;4.1;;
74788;SDS011;63313;48.258;12.518;2023-03-21T13:41:29;5.55;;;3.8600000000000003;;
74788;SDS011;63313;48.258;12.518;2023-03-21T13:46:59;6.410000000000001;;;4.180000000000001;;
74788;SDS011;63313;48.258;12.518;2023-03-21T13:52:26;9.86;;;4.2299999999999995;;
74788;SDS011;63313;48.258;12.518;2023-03-21T13:57:54;5.65;;;3.9699999999999998;;
74788;SDS011;63313;48.258;12.518;2023-03-21T14:03:21;9.410000000000002;;;5.01;;
74788;SDS011;63313;48.258;12.518;2023-03-21T14:08:48;5.17;;;4.140000000000001;;
74788;SDS011;63313;48.258;12.518;2023-03-21T14:14:16;6.069999999999999;;;4.49;;
74788;SDS011;63313;48.258;12.518;2023-03-21T14:19:43;5.53;;;4.160000000000001;;
74788;SDS011;63313;48.258;12.518;2023-03-21T14:25:11;4.18;;;3.78;;
74788;SDS011;63313;48.258;12.518;2023-03-21T14:30:40;5.27;;;3.91;;
74788;SDS011;63313;48.258;12.518;2023-03-21T14:36:09;5.88;;;4.0600000000000005;;
74788;SDS011;63313;48.258;12.518;2023-03-21T14:41:42;4.5;;;4.09;;
74788;SDS011;63313;48.258;12.518;2023-03-21T14:47:16;8.05;;;4.069999999999999;;
74788;SDS011;63313;48.258;12.518;2023-03-21T14:52:43;6.16;;;4.3;;
74788;SDS011;63313;48.258;12.518;2023-03-21T14:58:11;4.839999999999999;;;3.7600000000000002;;
74788;SDS011;63313;48.258;12.518;2023-03-21T15:03:38;5.49;;;4.17;;
74788;SDS011;63313;48.258;12.518;2023-03-21T15:09:05;4.700000000000001;;;3.8;;
74788;SDS011;63313;48.258;12.518;2023-03-21T15:14:33;5.75;;;3.8899999999999997;;
74788;SDS011;63313;48.258;12.518;2023-03-21T15:20:01;4.95;;;4.279999999999999;;
74788;SDS011;63313;48.258;12.518;2023-03-21T15:25:29;5.959999999999999;;;3.6499999999999995;;
74788;SDS011;63313;48.258;12.518;2023-03-21T15:30:56;4.2;;;3.839999999999999;;
74788;SDS011;63313;48.258;12.518;2023-03-21T15:36:24;4.91;;;3.55;;
74788;SDS011;63313;48.258;12.518;2023-03-21T15:41:55;5.09;;;3.7699999999999996;;
74788;SDS011;63313;48.258;12.518;2023-03-21T15:47:40;3.7599999999999993;;;3.45;;
74788;SDS011;63313;48.258;12.518;2023-03-21T15:53:10;4.42;;;3.8099999999999996;;
74788;SDS011;63313;48.258;12.518;2023-03-21T15:58:40;4.63;;;3.8899999999999997;;
74788;SDS011;63313;48.258;12.518;2023-03-21T16:04:08;4.45;;;4.04;;
74788;SDS011;63313;48.258;12.518;2023-03-21T16:09:37;4.36;;;3.41;;
74788;SDS011;63313;48.258;12.518;2023-03-21T16:15:05;4.709999999999999;;;4.06;;
74788;SDS011;63313;48.258;12.518;2023-03-21T16:20:33;6.02;;;4.45;;
74788;SDS011;63313;48.258;12.518;2023-03-21T16:26:01;7.220000000000001;;;3.8899999999999997;;
74788;SDS011;63313;48.258;12.518;2023-03-21T16:31:29;5.3;;;4.279999999999999;;
74788;SDS011;63313;48.258;12.518;2023-03-21T16:36:56;4.32;;;3.5400000000000005;;
74788;SDS011;63313;48.258;12.518;2023-03-21T16:42:23;4.61;;;3.8199999999999994;;
74788;SDS011;63313;48.258;12.518;2023-03-21T16:47:51;4.57;;;4.04;;
74788;SDS011;63313;48.258;12.518;2023-03-21T16:53:18;5.02;;;3.8899999999999992;;
74788;SDS011;63313;48.258;12.518;2023-03-21T16:58:46;4.57;;;3.6999999999999993;;
74788;SDS011;63313;48.258;12.518;2023-03-21T17:04:13;4.779999999999999;;;3.6900000000000004;;
74788;SDS011;63313;48.258;12.518;2023-03-21T17:09:40;4.57;;;3.2700000000000005;;
74788;SDS011;63313;48.258;12.518;2023-03-21T17:15:08;4.93;;;4.020000000000001;;
74788;SDS011;63313;48.258;12.518;2023-03-21T17:20:35;4.35;;;3.7399999999999998;;
74788;SDS011;63313;48.258;12.518;2023-03-21T17:26:32;4.05;;;3.3;;
74788;SDS011;63313;48.258;12.518;2023-03-21T17:31:59;5.220000000000001;;;3.31;;
74788;SDS011;63313;48.258;12.518;2023-03-21T17:37:26;6.45;;;3.9300000000000006;;
74788;SDS011;63313;48.258;12.518;2023-03-21T17:42:53;7.2;;;3.78;;
74788;SDS011;63313;48.258;12.518;2023-03-21T17:48:21;4.99;;;3.8199999999999994;;
74788;SDS011;63313;48.258;12.518;2023-03-21T17:53:48;6.75;;;4.17;;
74788;SDS011;63313;48.258;12.518;2023-03-21T17:59:15;5.92;;;3.7699999999999996;;
74788;SDS011;63313;48.258;12.518;2023-03-21T18:04:42;12.129999999999999;;;6.040000000000001;;
74788;SDS011;63313;48.258;12.518;2023-03-21T18:10:10;9.52;;;5.709999999999999;;
74788;SDS011;63313;48.258;12.518;2023-03-21T18:15:38;11.18;;;6.7299999999999995;;
74788;SDS011;63313;48.258;12.518;2023-03-21T18:21:05;10.389999999999999;;;6.8;;
74788;SDS011;63313;48.258;12.518;2023-03-21T18:26:33;12.41;;;6.65;;
74788;SDS011;63313;48.258;12.518;2023-03-21T18:32:00;13.180000000000001;;;7.38;;
74788;SDS011;63313;48.258;12.518;2023-03-21T18:37:27;9.84;;;7.12;;
74788;SDS011;63313;48.258;12.518;2023-03-21T18:42:54;10.059999999999999;;;6.489999999999999;;
74788;SDS011;63313;48.258;12.518;2023-03-21T18:48:21;13.830000000000002;;;7.4;;
74788;SDS011;63313;48.258;12.518;2023-03-21T18:53:48;16.61;;;8.979999999999999;;
74788;SDS011;63313;48.258;12.518;2023-03-21T18:59:16;12.910000000000002;;;7.710000000000001;;
74788;SDS011;63313;48.258;12.518;2023-03-21T19:04:43;16.119999999999997;;;8.320000000000002;;
74788;SDS011;63313;48.258;12.518;2023-03-21T19:10:10;14.310000000000002;;;8.25;;
74788;SDS011;63313;48.258;12.518;2023-03-21T19:15:37;28.779999999999994;;;12.58;;
74788;SDS011;63313;48.258;12.518;2023-03-21T19:21:05;22.28;;;10.32;;
74788;SDS011;63313;48.258;12.518;2023-03-21T19:26:32;19.02;;;7.590000000000001;;
74788;SDS011;63313;48.258;12.518;2023-03-21T19:31:59;11.23;;;7.0600000000000005;;
74788;SDS011;63313;48.258;12.518;2023-03-21T19:37:27;11.129999999999999;;;6.29;;
74788;SDS011;63313;48.258;12.518;2023-03-21T19:42:54;11.37;;;5.3;;
74788;SDS011;63313;48.258;12.518;2023-03-21T19:48:21;8.21;;;5.24;;
74788;SDS011;63313;48.258;12.518;2023-03-21T19:53:48;7.390000000000001;;;5.2;;
74788;SDS011;63313;48.258;12.518;2023-03-21T19:59:16;6.38;;;5.12;;
74788;SDS011;63313;48.258;12.518;2023-03-21T20:04:43;7.67;;;4.82;;
74788;SDS011;63313;48.258;12.518;2023-03-21T20:10:10;9.040000000000001;;;5.579999999999999;;
74788;SDS011;63313;48.258;12.518;2023-03-21T20:15:37;21.45;;;8.92;;
74788;SDS011;63313;48.258;12.518;2023-03-21T20:21:04;16.240000000000002;;;8.469999999999999;;
74788;SDS011;63313;48.258;12.518;2023-03-21T20:26:31;18.9;;;8.440000000000001;;
74788;SDS011;63313;48.258;12.518;2023-03-21T20:31:58;14.790000000000001;;;8.09;;
74788;SDS011;63313;48.258;12.518;2023-03-21T20:37:26;9.650000000000002;;;6.87;;
74788;SDS011;63313;48.258;12.518;2023-03-21T20:42:53;9.639999999999999;;;6.83;;
74788;SDS011;63313;48.258;12.518;2023-03-21T20:48:20;11.9;;;7.340000000000001;;
74788;SDS011;63313;48.258;12.518;2023-03-21T20:53:47;12.41;;;7.040000000000001;;
74788;SDS011;63313;48.258;12.518;2023-03-21T20:59:14;25.77;;;10.559999999999999;;
74788;SDS011;63313;48.258;12.518;2023-03-21T21:04:41;12.2;;;7.2;;
74788;SDS011;63313;48.258;12.518;2023-03-21T21:10:09;20.42;;;10.030000000000001;;
74788;SDS011;63313;48.258;12.518;2023-03-21T21:15:36;18.16;;;9.379999999999999;;
74788;SDS011;63313;48.258;12.518;2023-03-21T21:21:04;10.7;;;6.93;;
74788;SDS011;63313;48.258;12.518;2023-03-21T21:26:31;10.67;;;6.959999999999999;;
74788;SDS011;63313;48.258;12.518;2023-03-21T21:31:58;9.870000000000001;;;6.739999999999999;;
74788;SDS011;63313;48.258;12.518;2023-03-21T21:37:26;9.77;;;6.6899999999999995;;
74788;SDS011;63313;48.258;12.518;2023-03-21T21:42:53;13.280000000000001;;;7.200000000000001;;
74788;SDS011;63313;48.258;12.518;2023-03-21T21:48:20;20.419999999999995;;;11.15;;
74788;SDS011;63313;48.258;12.518;2023-03-21T21:53:47;10.76;;;6.540000000000001;;
74788;SDS011;63313;48.258;12.518;2023-03-21T21:59:14;11.01;;;6.75;;
74788;SDS011;63313;48.258;12.518;2023-03-21T22:04:41;13.76;;;6.890000000000001;;
74788;SDS011;63313;48.258;12.518;2023-03-21T22:10:09;15.170000000000002;;;6.1899999999999995;;
74788;SDS011;63313;48.258;12.518;2023-03-21T22:15:36;16.41;;;6.480000000000001;;
74788;SDS011;63313;48.258;12.518;2023-03-21T22:21:03;25.18;;;10.350000000000001;;
74788;SDS011;63313;48.258;12.518;2023-03-21T22:26:31;12.26;;;6.32;;
74788;SDS011;63313;48.258;12.518;2023-03-21T22:31:58;11.72;;;6.44;;
74788;SDS011;63313;48.258;12.518;2023-03-21T22:37:25;17.339999999999996;;;7.17;;
74788;SDS011;63313;48.258;12.518;2023-03-21T22:42:52;12.21;;;7.37;;
74788;SDS011;63313;48.258;12.518;2023-03-21T22:48:19;15.570000000000002;;;7.330000000000001;;
74788;SDS011;63313;48.258;12.518;2023-03-21T22:53:46;12.260000000000002;;;6.220000000000001;;
74788;SDS011;63313;48.258;12.518;2023-03-21T22:59:13;12.35;;;6.83;;
74788;SDS011;63313;48.258;12.518;2023-03-21T23:04:41;8.44;;;6.38;;
74788;SDS011;63313;48.258;12.518;2023-03-21T23:10:08;12.52;;;6.6;;
74788;SDS011;63313;48.258;12.518;2023-03-21T23:15:35;25.250000000000004;;;10.440000000000001;;
74788;SDS011;63313;48.258;12.518;2023-03-21T23:21:03;27.8;;;11.479999999999999;;
74788;SDS011;63313;48.258;12.518;2023-03-21T23:26:30;12.970000000000002;;;6.279999999999999;;
74788;SDS011;63313;48.258;12.518;2023-03-21T23:31:57;11.09;;;5.8100000000000005;;
74788;SDS011;63313;48.258;12.518;2023-03-21T23:37:24;24.24;;;8.97;;
74788;SDS011;63313;48.258;12.518;2023-03-21T23:42:51;19.66;;;9.01;;
74788;SDS011;63313;48.258;12.518;2023-03-21T23:48:19;12.91;;;5.62;;
74788;SDS011;63313;48.258;12.518;2023-03-21T23:53:46;14.280000000000001;;;6.45;;
74788;SDS011;63313;48.258;12.518;2023-03-21T23:59:13;12.39;;;6.49;;
